Terminal Aerodrome Forecast
Issued by NWS

Home | Current Version | Previous Version | Text Only | Print | Product List | Glossary On
Versions: 1 2 3 4 5 6 7 8 9 10 11 12 13 14 15 16 17 18 19 20 21 22 23 24 25 26
000
FTUS43 KDLH 011138
TAFBRD
TAF
KBRD 011138Z 0112/0212 VRB02KT P6SM SKC
      TEMPO 0112/0113 1SM BR
     FM011600 VRB05KT P6SM SCT100
     FM020400 00000KT P6SM VCSH SCT040 SCT120
     FM020800 00000KT 5SM BR SKC=

USA.gov is the U.S. government's official web portal to all federal, state and local government web resources and services.